createdAt,value
2018-09-27T00:00:22.553Z,63.48
2018-09-27T00:01:22.528Z,63.96
2018-09-27T00:02:22.514Z,63.39
2018-09-27T00:03:22.505Z,63.39
2018-09-27T00:04:22.488Z,63.86
2018-09-27T00:05:22.476Z,63.86
2018-09-27T00:06:22.462Z,63.48
2018-09-27T00:07:22.458Z,63.48
2018-09-27T00:08:22.452Z,63.00
2018-09-27T00:09:22.420Z,63.10
2018-09-27T00:10:22.440Z,63.19
2018-09-27T00:11:22.413Z,63.57
2018-09-27T00:12:22.390Z,63.29
2018-09-27T00:13:22.378Z,63.67
2018-09-27T00:14:22.368Z,63.96
2018-09-27T00:15:22.350Z,63.86
2018-09-27T00:16:22.342Z,63.86
2018-09-27T00:17:22.325Z,63.29
2018-09-27T00:18:22.317Z,63.48
2018-09-27T00:19:22.349Z,63.29
2018-09-27T00:20:22.292Z,63.39
2018-09-27T00:21:22.318Z,63.86
2018-09-27T00:22:22.261Z,63.39
2018-09-27T00:23:22.254Z,63.67
2018-09-27T00:24:22.234Z,63.19
2018-09-27T00:25:22.230Z,63.29
2018-09-27T00:26:22.214Z,63.39
2018-09-27T00:27:22.200Z,63.48
2018-09-27T00:28:22.188Z,63.57
2018-09-27T00:29:22.181Z,63.67
2018-09-27T00:30:22.192Z,62.90
2018-09-27T00:31:22.206Z,63.48
2018-09-27T00:32:22.138Z,63.39
2018-09-27T00:33:22.123Z,64.15
2018-09-27T00:34:22.112Z,63.76
2018-09-27T00:35:22.098Z,63.29
2018-09-27T00:36:22.080Z,63.86
2018-09-27T00:37:22.085Z,63.86
2018-09-27T00:38:22.065Z,63.76
2018-09-27T00:39:22.040Z,63.48
2018-09-27T00:40:22.038Z,63.10
2018-09-27T00:41:22.031Z,63.48
2018-09-27T00:42:22.016Z,63.10
2018-09-27T00:43:22.001Z,62.71
2018-09-27T00:44:21.983Z,63.29
2018-09-27T00:45:21.975Z,62.43
2018-09-27T00:46:21.965Z,62.62
2018-09-27T00:47:21.997Z,62.81
2018-09-27T00:48:21.936Z,62.62
2018-09-27T00:49:21.926Z,63.10
2018-09-27T00:50:21.903Z,63.29
2018-09-27T00:51:21.903Z,63.76
2018-09-27T00:52:21.883Z,63.96
2018-09-27T00:53:21.905Z,63.57
2018-09-27T00:54:21.849Z,63.39
2018-09-27T00:55:21.913Z,63.48
2018-09-27T00:56:21.831Z,63.67
2018-09-27T00:57:21.813Z,63.67
2018-09-27T00:58:21.808Z,63.96
2018-09-27T00:59:21.791Z,63.76
2018-09-27T01:00:21.989Z,63.76
2018-09-27T01:01:22.006Z,63.29
2018-09-27T01:02:21.768Z,63.10
2018-09-27T01:03:21.746Z,63.00
2018-09-27T01:04:21.724Z,63.00
2018-09-27T01:05:21.708Z,63.29
2018-09-27T01:06:21.734Z,63.00
2018-09-27T01:07:21.690Z,63.48
2018-09-27T01:08:21.679Z,63.67
2018-09-27T01:09:21.665Z,64.05
2018-09-27T01:10:21.660Z,64.15
2018-09-27T01:11:21.666Z,63.86
2018-09-27T01:12:21.628Z,63.57
2018-09-27T01:13:21.621Z,63.96
2018-09-27T01:14:21.593Z,64.05
2018-09-27T01:15:21.588Z,64.53
2018-09-27T01:16:21.595Z,64.25
2018-09-27T01:17:21.571Z,63.96
2018-09-27T01:18:21.544Z,63.76
2018-09-27T01:19:21.529Z,63.86
2018-09-27T01:20:21.561Z,63.76
2018-09-27T01:21:21.547Z,64.05
2018-09-27T01:22:21.512Z,63.86
2018-09-27T01:23:21.519Z,63.76
2018-09-27T01:24:21.465Z,63.76
2018-09-27T01:25:21.462Z,63.76
2018-09-27T01:26:21.451Z,64.25
2018-09-27T01:27:21.446Z,63.86
2018-09-27T01:28:21.448Z,63.96
2018-09-27T01:29:21.420Z,63.67
2018-09-27T01:30:21.405Z,63.96
2018-09-27T01:31:21.379Z,63.76
2018-09-27T01:32:21.373Z,63.67
2018-09-27T01:33:21.410Z,63.67
2018-09-27T01:34:21.345Z,63.39
2018-09-27T01:35:21.334Z,63.57
2018-09-27T01:36:21.325Z,63.96
2018-09-27T01:37:21.308Z,64.34
2018-09-27T01:38:21.309Z,64.05
2018-09-27T01:39:21.290Z,63.96
2018-09-27T01:40:21.271Z,64.05
2018-09-27T01:41:21.258Z,64.34
2018-09-27T01:42:21.246Z,63.86
2018-09-27T01:43:21.232Z,64.72
2018-09-27T01:44:21.234Z,64.62
2018-09-27T01:45:21.209Z,64.25
2018-09-27T01:46:21.202Z,63.76
2018-09-27T01:47:21.178Z,64.25
2018-09-27T01:48:21.203Z,63.48
2018-09-27T01:49:21.184Z,64.25
2018-09-27T01:50:21.145Z,63.76
2018-09-27T01:51:21.131Z,64.25
2018-09-27T01:52:21.121Z,64.05
2018-09-27T01:53:21.110Z,63.76
2018-09-27T01:54:21.124Z,64.15
2018-09-27T01:55:21.085Z,63.86
2018-09-27T01:56:21.074Z,64.05
2018-09-27T01:57:21.051Z,63.86
2018-09-27T01:58:21.045Z,63.39
2018-09-27T01:59:21.066Z,63.86
2018-09-27T02:00:21.015Z,63.86
2018-09-27T02:01:21.004Z,63.76
2018-09-27T02:02:20.989Z,63.86
2018-09-27T02:03:20.981Z,63.86
2018-09-27T02:04:20.994Z,64.05
2018-09-27T02:05:20.954Z,64.34
2018-09-27T02:06:20.933Z,63.86
2018-09-27T02:07:21.001Z,64.25
2018-09-27T02:08:20.906Z,64.34
2018-09-27T02:09:20.911Z,64.25
2018-09-27T02:10:21.080Z,64.25
2018-09-27T02:11:20.867Z,63.86
2018-09-27T02:12:20.865Z,63.96
2018-09-27T02:13:20.885Z,63.86
2018-09-27T02:14:20.870Z,63.76
2018-09-27T02:15:20.830Z,64.15
2018-09-27T02:16:20.817Z,63.86
2018-09-27T02:17:20.802Z,63.86
2018-09-27T02:18:20.792Z,63.76
2018-09-27T02:19:20.805Z,63.57
2018-09-27T02:20:20.773Z,63.48
2018-09-27T02:21:20.742Z,63.96
2018-09-27T02:22:20.771Z,63.67
2018-09-27T02:23:20.728Z,63.48
2018-09-27T02:24:20.734Z,63.86
2018-09-27T02:25:20.717Z,64.43
2018-09-27T02:26:20.681Z,64.05
2018-09-27T02:27:20.681Z,63.57
2018-09-27T02:28:20.666Z,63.76
2018-09-27T02:29:20.656Z,64.43
2018-09-27T02:30:20.669Z,64.34
2018-09-27T02:31:20.617Z,64.53
2018-09-27T02:32:20.611Z,63.86
2018-09-27T02:33:20.602Z,64.15
2018-09-27T02:34:20.575Z,64.62
2018-09-27T02:35:20.604Z,64.53
2018-09-27T02:36:20.646Z,64.62
2018-09-27T02:37:20.547Z,64.62
2018-09-27T02:38:20.538Z,64.15
2018-09-27T02:39:20.524Z,64.91
2018-09-27T02:40:20.513Z,64.43
2018-09-27T02:41:20.503Z,64.62
2018-09-27T02:42:20.514Z,64.72
2018-09-27T02:43:20.463Z,63.96
2018-09-27T02:44:20.462Z,63.86
2018-09-27T02:45:20.442Z,64.53
2018-09-27T02:46:20.425Z,64.82
2018-09-27T02:47:20.466Z,64.25
2018-09-27T02:48:20.410Z,64.62
2018-09-27T02:49:20.387Z,64.82
2018-09-27T02:50:20.388Z,64.53
2018-09-27T02:51:20.376Z,64.25
2018-09-27T02:52:20.375Z,64.53
2018-09-27T02:53:20.344Z,64.62
2018-09-27T02:54:20.648Z,64.15
2018-09-27T02:55:20.317Z,64.15
2018-09-27T02:56:20.312Z,64.15
2018-09-27T02:57:20.297Z,64.91
2018-09-27T02:58:20.272Z,64.62
2018-09-27T02:59:20.272Z,64.53
2018-09-27T03:00:20.293Z,64.62
2018-09-27T03:01:20.235Z,64.72
2018-09-27T03:02:20.233Z,64.25
2018-09-27T03:03:20.223Z,64.53
2018-09-27T03:04:20.234Z,64.34
2018-09-27T03:05:20.197Z,64.62
2018-09-27T03:06:20.183Z,64.53
2018-09-27T03:07:20.167Z,64.43
2018-09-27T03:08:20.148Z,64.43
2018-09-27T03:09:20.165Z,64.43
2018-09-27T03:10:20.332Z,64.43
2018-09-27T03:11:20.121Z,64.25
2018-09-27T03:12:20.104Z,64.25
2018-09-27T03:13:20.081Z,64.43
2018-09-27T03:14:20.071Z,64.53
2018-09-27T03:15:20.086Z,64.34
2018-09-27T03:16:20.044Z,64.62
2018-09-27T03:17:20.096Z,64.72
2018-09-27T03:18:20.034Z,65.01
2018-09-27T03:19:20.004Z,65.20
2018-09-27T03:20:19.997Z,65.97
2018-09-27T03:21:19.988Z,65.58
2018-09-27T03:22:19.971Z,65.11
2018-09-27T03:23:19.980Z,64.43
2018-09-27T03:24:19.952Z,64.72
2018-09-27T03:25:19.937Z,65.20
2018-09-27T03:26:19.934Z,64.43
2018-09-27T03:27:19.908Z,64.62
2018-09-27T03:28:19.929Z,64.62
2018-09-27T03:29:19.887Z,64.25
2018-09-27T03:30:19.900Z,64.53
2018-09-27T03:31:19.850Z,64.34
2018-09-27T03:32:19.847Z,64.72
2018-09-27T03:33:19.833Z,64.53
2018-09-27T03:34:19.827Z,65.01
2018-09-27T03:35:19.855Z,64.72
2018-09-27T03:36:19.803Z,65.11
2018-09-27T03:37:19.780Z,65.58
2018-09-27T03:38:19.774Z,64.25
2018-09-27T03:39:19.752Z,64.53
2018-09-27T03:40:19.958Z,65.20
2018-09-27T03:41:19.733Z,64.62
2018-09-27T03:42:19.720Z,65.48
2018-09-27T03:43:19.704Z,66.16
2018-09-27T03:44:19.680Z,66.35
2018-09-27T03:45:19.678Z,66.35
2018-09-27T03:46:19.660Z,65.97
2018-09-27T03:47:19.651Z,66.63
2018-09-27T03:48:19.639Z,66.25
2018-09-27T03:49:19.631Z,66.25
2018-09-27T03:50:19.611Z,66.35
2018-09-27T03:51:19.621Z,66.54
2018-09-27T03:52:19.590Z,66.25
2018-09-27T03:53:19.584Z,66.25
2018-09-27T03:54:19.562Z,66.25
2018-09-27T03:55:19.538Z,65.97
2018-09-27T03:56:19.577Z,65.58
2018-09-27T03:57:19.521Z,65.39
2018-09-27T03:58:19.502Z,65.30
2018-09-27T03:59:19.528Z,65.87
2018-09-27T04:00:19.504Z,65.01
2018-09-27T04:01:19.476Z,65.20
2018-09-27T04:02:19.491Z,64.91
2018-09-27T04:03:19.501Z,65.20
2018-09-27T04:04:19.433Z,66.16
2018-09-27T04:05:19.409Z,65.77
2018-09-27T04:06:19.405Z,64.91
2018-09-27T04:07:19.392Z,65.20
2018-09-27T04:08:19.381Z,65.48
2018-09-27T04:09:19.366Z,64.53
2018-09-27T04:10:19.360Z,64.34
2018-09-27T04:11:19.340Z,64.43
2018-09-27T04:12:19.319Z,64.43
2018-09-27T04:13:19.367Z,64.34
2018-09-27T04:14:19.308Z,64.43
2018-09-27T04:15:19.292Z,64.43
2018-09-27T04:16:19.282Z,64.25
2018-09-27T04:17:19.257Z,64.62
2018-09-27T04:18:19.250Z,65.01
2018-09-27T04:19:19.258Z,64.34
2018-09-27T04:20:19.228Z,64.62
2018-09-27T04:21:19.219Z,64.62
2018-09-27T04:22:19.208Z,64.62
2018-09-27T04:23:19.186Z,64.62
2018-09-27T04:24:19.231Z,64.05
2018-09-27T04:25:19.163Z,64.25
2018-09-27T04:26:19.149Z,64.34
2018-09-27T04:27:19.134Z,64.34
2018-09-27T04:28:19.131Z,64.25
2018-09-27T04:29:19.116Z,64.62
2018-09-27T04:30:19.094Z,64.53
2018-09-27T04:31:19.083Z,64.15
2018-09-27T04:32:19.070Z,64.15
2018-09-27T04:33:19.086Z,64.34
2018-09-27T04:34:19.080Z,64.53
2018-09-27T04:35:19.027Z,64.34
2018-09-27T04:36:19.093Z,64.43
2018-09-27T04:37:19.009Z,64.62
2018-09-27T04:38:18.992Z,64.34
2018-09-27T04:39:18.978Z,64.25
2018-09-27T04:40:18.958Z,63.96
2018-09-27T04:41:19.022Z,63.76
2018-09-27T04:42:18.936Z,64.53
2018-09-27T04:43:18.932Z,64.25
2018-09-27T04:44:18.920Z,64.34
2018-09-27T04:45:18.896Z,64.62
2018-09-27T04:46:18.881Z,63.96
2018-09-27T04:47:18.903Z,64.43
2018-09-27T04:48:18.873Z,64.43
2018-09-27T04:49:18.855Z,64.82
2018-09-27T04:50:18.840Z,64.62
2018-09-27T04:51:18.829Z,64.34
2018-09-27T04:52:18.850Z,64.53
2018-09-27T04:53:18.835Z,65.20
2018-09-27T04:54:18.792Z,64.82
2018-09-27T04:55:18.771Z,64.91
2018-09-27T04:56:18.765Z,65.01
2018-09-27T04:57:18.750Z,64.91
2018-09-27T04:58:18.770Z,65.39
2018-09-27T04:59:18.717Z,65.87
2018-09-27T05:00:18.714Z,65.68
2018-09-27T05:01:18.702Z,65.87
2018-09-27T05:02:18.680Z,65.68
2018-09-27T05:03:18.700Z,64.91
2018-09-27T05:04:18.663Z,64.53
2018-09-27T05:05:18.643Z,64.91
2018-09-27T05:06:18.698Z,64.91
2018-09-27T05:07:18.630Z,65.20
2018-09-27T05:08:18.867Z,65.39
2018-09-27T05:09:18.598Z,65.97
2018-09-27T05:10:18.601Z,65.58
2018-09-27T05:11:18.609Z,65.58
2018-09-27T05:12:18.565Z,64.91
2018-09-27T05:13:18.544Z,65.30
2018-09-27T05:14:18.567Z,64.43
2018-09-27T05:15:18.552Z,64.62
2018-09-27T05:16:18.508Z,64.25
2018-09-27T05:17:18.495Z,64.43
2018-09-27T05:18:18.489Z,64.53
2018-09-27T05:19:18.683Z,64.62
2018-09-27T05:20:18.467Z,64.25
2018-09-27T05:21:18.445Z,64.82
2018-09-27T05:22:18.434Z,65.11
2018-09-27T05:23:18.421Z,64.91
2018-09-27T05:24:18.414Z,65.11
2018-09-27T05:25:18.400Z,64.72
2018-09-27T05:26:18.386Z,64.72
2018-09-27T05:27:18.401Z,64.62
2018-09-27T05:28:18.355Z,64.34
2018-09-27T05:29:18.345Z,64.05
2018-09-27T05:30:18.600Z,64.05
2018-09-27T05:31:18.320Z,63.86
2018-09-27T05:32:18.296Z,63.67
2018-09-27T05:33:18.303Z,64.43
2018-09-27T05:34:18.287Z,64.53
2018-09-27T05:35:18.272Z,63.86
2018-09-27T05:36:18.285Z,64.53
2018-09-27T05:37:18.250Z,64.25
2018-09-27T05:38:18.234Z,64.15
2018-09-27T05:39:18.206Z,64.34
2018-09-27T05:40:18.205Z,64.53
2018-09-27T05:41:18.227Z,64.43
2018-09-27T05:42:18.172Z,63.86
2018-09-27T05:43:18.168Z,64.43
2018-09-27T05:44:18.148Z,64.43
2018-09-27T05:45:18.132Z,64.82
2018-09-27T05:46:18.197Z,64.43
2018-09-27T05:47:18.106Z,64.34
2018-09-27T05:48:18.102Z,63.96
2018-09-27T05:49:18.089Z,64.15
2018-09-27T05:50:18.071Z,63.86
2018-09-27T05:51:18.059Z,64.43
2018-09-27T05:52:18.047Z,63.96
2018-09-27T05:53:18.033Z,64.43
2018-09-27T05:54:18.014Z,64.25
2018-09-27T05:55:18.019Z,63.67
2018-09-27T05:56:17.990Z,63.96
2018-09-27T05:57:18.056Z,64.43
2018-09-27T05:58:17.976Z,64.43
2018-09-27T05:59:17.956Z,64.72
2018-09-27T06:00:17.948Z,64.62
2018-09-27T06:01:17.941Z,64.53
2018-09-27T06:02:17.924Z,64.53
2018-09-27T06:03:17.945Z,64.53
2018-09-27T06:04:17.899Z,64.34
2018-09-27T06:05:17.883Z,64.53
2018-09-27T06:06:17.878Z,64.62
2018-09-27T06:07:17.849Z,64.62
2018-09-27T06:08:17.876Z,65.20
2018-09-27T06:09:17.842Z,64.62
2018-09-27T06:10:17.822Z,64.91
2018-09-27T06:11:17.861Z,64.72
2018-09-27T06:12:17.785Z,65.01
2018-09-27T06:13:17.773Z,65.11
2018-09-27T06:14:17.793Z,64.82
2018-09-27T06:15:17.748Z,64.72
2018-09-27T06:16:17.753Z,65.01
2018-09-27T06:17:17.727Z,65.39
2018-09-27T06:18:17.717Z,65.30
2018-09-27T06:19:17.745Z,65.30
2018-09-27T06:20:17.692Z,65.39
2018-09-27T06:21:17.680Z,64.43
2018-09-27T06:22:17.677Z,64.34
2018-09-27T06:23:17.656Z,65.11
2018-09-27T06:24:17.656Z,65.20
2018-09-27T06:25:17.625Z,65.20
2018-09-27T06:26:17.615Z,65.30
2018-09-27T06:27:17.593Z,65.48
2018-09-27T06:28:17.599Z,65.68
2018-09-27T06:29:17.637Z,65.87
2018-09-27T06:30:17.564Z,66.06
2018-09-27T06:31:17.552Z,66.16
2018-09-27T06:32:17.551Z,66.44
2018-09-27T06:33:17.524Z,66.44
2018-09-27T06:34:17.519Z,66.44
2018-09-27T06:35:17.530Z,66.38
2018-09-27T06:36:17.509Z,66.38
2018-09-27T06:37:17.471Z,66.38
2018-09-27T06:38:17.466Z,66.19
2018-09-27T06:39:17.455Z,66.09
2018-09-27T06:40:17.467Z,65.90
2018-09-27T06:41:17.483Z,66.28
2018-09-27T06:42:17.453Z,66.19
2018-09-27T06:43:17.413Z,66.28
2018-09-27T06:44:17.400Z,66.09
2018-09-27T06:45:17.379Z,66.19
2018-09-27T06:46:17.418Z,66.19
2018-09-27T06:47:17.345Z,66.28
2018-09-27T06:48:17.398Z,66.19
2018-09-27T06:49:17.340Z,66.47
2018-09-27T06:50:17.317Z,66.38
2018-09-27T06:51:17.298Z,66.38
2018-09-27T06:52:17.294Z,66.47
2018-09-27T06:53:17.313Z,66.67
2018-09-27T06:54:17.263Z,66.47
2018-09-27T06:55:17.601Z,66.28
2018-09-27T06:56:17.280Z,66.38
2018-09-27T06:57:17.230Z,66.47
2018-09-27T06:58:17.250Z,66.47
2018-09-27T06:59:17.207Z,66.67
2018-09-27T07:00:17.191Z,66.67
2018-09-27T07:01:17.181Z,66.38
2018-09-27T07:02:17.169Z,66.57
2018-09-27T07:03:17.216Z,66.57
2018-09-27T07:04:17.144Z,66.19
2018-09-27T07:05:17.127Z,66.28
2018-09-27T07:06:17.114Z,66.38
2018-09-27T07:07:17.155Z,66.19
2018-09-27T07:08:17.099Z,66.38
2018-09-27T07:09:17.090Z,66.19
2018-09-27T07:10:17.108Z,66.09
2018-09-27T07:11:17.067Z,66.57
2018-09-27T07:12:17.136Z,66.19
2018-09-27T07:13:17.042Z,65.52
2018-09-27T07:14:17.055Z,66.28
2018-09-27T07:15:17.009Z,66.38
2018-09-27T07:16:17.000Z,66.28
2018-09-27T07:17:16.986Z,66.47
2018-09-27T07:18:16.968Z,66.57
2018-09-27T07:19:17.001Z,65.33
2018-09-27T07:20:16.965Z,64.95
2018-09-27T07:21:16.940Z,65.52
2018-09-27T07:22:16.926Z,65.52
2018-09-27T07:23:16.916Z,65.14
2018-09-27T07:24:16.895Z,66.00
2018-09-27T07:25:16.953Z,65.61
2018-09-27T07:26:16.877Z,65.71
2018-09-27T07:27:16.861Z,65.71
2018-09-27T07:28:16.854Z,65.61
2018-09-27T07:29:16.838Z,65.14
2018-09-27T07:30:16.824Z,65.61
2018-09-27T07:31:16.820Z,65.52
2018-09-27T07:32:16.813Z,66.09
2018-09-27T07:33:16.791Z,65.42
2018-09-27T07:34:16.807Z,65.08
2018-09-27T07:35:16.769Z,64.66
2018-09-27T07:36:16.759Z,63.70
2018-09-27T07:37:16.756Z,64.69
2018-09-27T07:38:16.727Z,64.31
2018-09-27T07:39:16.724Z,64.50
2018-09-27T07:40:16.716Z,64.59
2018-09-27T07:41:16.702Z,64.69
2018-09-27T07:42:16.689Z,64.98
2018-09-27T07:43:16.678Z,65.08
2018-09-27T07:44:16.662Z,65.08
2018-09-27T07:45:16.647Z,65.17
2018-09-27T07:46:16.650Z,65.26
2018-09-27T07:47:16.631Z,64.40
2018-09-27T07:48:16.651Z,64.50
2018-09-27T07:49:16.607Z,63.73
2018-09-27T07:50:16.589Z,64.22
2018-09-27T07:51:16.580Z,63.93
2018-09-27T07:52:16.751Z,64.31
2018-09-27T07:53:16.555Z,63.73
2018-09-27T07:54:16.613Z,63.93
2018-09-27T07:55:16.530Z,64.31
2018-09-27T07:56:16.531Z,63.83
2018-09-27T07:57:16.534Z,64.40
2018-09-27T07:58:16.501Z,63.73
2018-09-27T07:59:16.493Z,64.12
2018-09-27T08:00:16.470Z,64.40
2018-09-27T08:01:16.464Z,63.83
2018-09-27T08:02:16.476Z,63.64
2018-09-27T08:03:16.445Z,63.83
2018-09-27T08:04:16.472Z,63.93
2018-09-27T08:05:16.415Z,64.22
2018-09-27T08:06:16.408Z,64.31
2018-09-27T08:07:16.405Z,63.83
2018-09-27T08:08:16.454Z,63.16
2018-09-27T08:09:16.374Z,63.16
2018-09-27T08:10:16.370Z,63.16
2018-09-27T08:11:16.499Z,63.35
2018-09-27T08:12:16.329Z,63.93
2018-09-27T08:13:16.322Z,63.73
2018-09-27T08:14:16.344Z,63.73
2018-09-27T08:15:16.310Z,63.83
2018-09-27T08:16:16.299Z,64.15
2018-09-27T08:17:16.351Z,63.29
2018-09-27T08:18:16.280Z,63.19
2018-09-27T08:19:16.257Z,63.86
2018-09-27T08:20:16.328Z,63.48
2018-09-27T08:21:16.359Z,63.39
2018-09-27T08:22:16.225Z,63.57
2018-09-27T08:23:16.204Z,63.67
2018-09-27T08:24:16.193Z,63.19
2018-09-27T08:25:16.230Z,63.19
2018-09-27T08:26:16.172Z,63.00
2018-09-27T08:27:16.168Z,62.62
2018-09-27T08:28:16.157Z,62.43
2018-09-27T08:29:16.136Z,62.62
2018-09-27T08:30:16.194Z,63.19
2018-09-27T08:31:16.168Z,62.90
2018-09-27T08:32:16.115Z,63.19
2018-09-27T08:33:16.092Z,62.90
2018-09-27T08:34:16.082Z,62.90
2018-09-27T08:35:16.070Z,62.52
2018-09-27T08:36:16.076Z,62.33
2018-09-27T08:37:16.054Z,62.33
2018-09-27T08:38:16.067Z,62.84
2018-09-27T08:39:16.038Z,63.22
2018-09-27T08:40:16.020Z,62.84
2018-09-27T08:41:16.042Z,62.93
2018-09-27T08:42:16.021Z,62.36
2018-09-27T08:43:15.987Z,62.26
2018-09-27T08:44:15.976Z,62.55
2018-09-27T08:45:16.331Z,62.36
2018-09-27T08:46:15.961Z,62.55
2018-09-27T08:47:15.976Z,62.84
2018-09-27T08:48:15.932Z,62.84
2018-09-27T08:49:15.915Z,62.93
2018-09-27T08:50:15.903Z,61.21
2018-09-27T08:51:15.902Z,60.83
2018-09-27T08:52:15.927Z,60.35
2018-09-27T08:53:15.885Z,59.97
2018-09-27T08:54:15.867Z,60.35
2018-09-27T08:55:15.868Z,60.93
2018-09-27T08:56:16.016Z,61.21
2018-09-27T08:57:15.905Z,60.47
2018-09-27T08:58:15.825Z,59.80
2018-09-27T08:59:15.805Z,58.46
2018-09-27T09:00:15.799Z,58.84
2018-09-27T09:01:15.785Z,58.37
2018-09-27T09:02:15.781Z,57.70
2018-09-27T09:03:15.779Z,58.08
2018-09-27T09:04:15.767Z,57.60
2018-09-27T09:05:15.748Z,58.56
2018-09-27T09:06:15.732Z,58.75
2018-09-27T09:07:15.732Z,58.84
2018-09-27T09:08:15.750Z,57.06
2018-09-27T09:09:15.707Z,57.43
2018-09-27T09:10:15.699Z,58.01
2018-09-27T09:11:15.689Z,57.24
2018-09-27T09:12:15.694Z,57.34
2018-09-27T09:13:15.703Z,56.67
2018-09-27T09:14:15.686Z,55.62
2018-09-27T09:15:15.649Z,55.62
2018-09-27T09:16:15.637Z,55.42
2018-09-27T09:17:15.618Z,55.62
2018-09-27T09:18:15.608Z,55.33
2018-09-27T09:19:15.636Z,56.29
2018-09-27T09:20:15.598Z,56.76
2018-09-27T09:21:15.589Z,56.67
2018-09-27T09:22:15.569Z,57.34
2018-09-27T09:23:15.558Z,56.76
2018-09-27T09:24:15.578Z,56.86
2018-09-27T09:25:15.545Z,57.06
2018-09-27T09:26:15.537Z,56.09
2018-09-27T09:27:15.519Z,56.38
2018-09-27T09:28:15.506Z,56.29
2018-09-27T09:29:15.508Z,56.96
2018-09-27T09:30:15.497Z,57.28
2018-09-27T09:31:15.513Z,57.28
2018-09-27T09:32:15.461Z,56.89
2018-09-27T09:33:15.464Z,57.08
2018-09-27T09:34:15.455Z,57.65
2018-09-27T09:35:15.441Z,56.79
2018-09-27T09:36:15.495Z,56.89
2018-09-27T09:37:15.418Z,57.08
2018-09-27T09:38:15.404Z,56.51
2018-09-27T09:39:15.405Z,56.98
2018-09-27T09:40:15.381Z,57.56
2018-09-27T09:41:15.376Z,56.89
2018-09-27T09:42:15.392Z,57.08
2018-09-27T09:43:15.352Z,56.51
2018-09-27T09:44:15.348Z,57.08
2018-09-27T09:45:15.335Z,57.28
2018-09-27T09:46:15.358Z,56.60
2018-09-27T09:47:15.323Z,55.64
2018-09-27T09:48:15.309Z,56.60
2018-09-27T09:49:15.324Z,57.18
2018-09-27T09:50:15.287Z,57.46
2018-09-27T09:51:15.278Z,58.33
2018-09-27T09:52:15.271Z,58.04
2018-09-27T09:53:15.254Z,58.52
2018-09-27T09:54:15.285Z,58.91
2018-09-27T09:55:15.237Z,58.45
2018-09-27T09:56:15.222Z,58.42
2018-09-27T09:57:15.227Z,57.68
2018-09-27T09:58:15.206Z,58.26
2018-09-27T09:59:15.229Z,58.84
2018-09-27T10:00:15.190Z,58.55
2018-09-27T10:01:15.183Z,58.45
2018-09-27T10:02:15.170Z,59.29
2018-09-27T10:03:15.164Z,58.94
2018-09-27T10:04:15.172Z,58.94
2018-09-27T10:05:15.141Z,59.70
2018-09-27T10:06:15.307Z,59.41
2018-09-27T10:07:15.127Z,58.94
2018-09-27T10:08:15.106Z,58.55
2018-09-27T10:09:15.095Z,59.80
2018-09-27T10:10:15.091Z,58.84
2018-09-27T10:11:15.073Z,59.61
2018-09-27T10:12:15.072Z,59.51
2018-09-27T10:13:15.064Z,58.64
2018-09-27T10:14:15.041Z,58.45
2018-09-27T10:15:15.032Z,57.30
2018-09-27T10:16:15.052Z,57.30
2018-09-27T10:17:15.027Z,57.50
2018-09-27T10:18:15.035Z,57.40
2018-09-27T10:19:15.012Z,58.07
2018-09-27T10:20:14.993Z,57.30
2018-09-27T10:21:14.974Z,57.50
2018-09-27T10:22:15.004Z,57.68
2018-09-27T10:23:14.986Z,57.68
2018-09-27T10:24:14.953Z,56.44
2018-09-27T10:25:15.006Z,57.30
2018-09-27T10:26:14.927Z,56.24
2018-09-27T10:27:14.918Z,55.77
2018-09-27T10:28:14.911Z,55.51
2018-09-27T10:29:14.893Z,55.89
2018-09-27T10:30:14.888Z,55.99
2018-09-27T10:31:14.915Z,56.66
2018-09-27T10:32:14.871Z,56.18
2018-09-27T10:33:14.862Z,56.56
2018-09-27T10:34:14.918Z,57.14
2018-09-27T10:35:14.857Z,56.66
2018-09-27T10:36:14.838Z,56.08
2018-09-27T10:37:14.826Z,55.51
2018-09-27T10:38:14.814Z,56.76
2018-09-27T10:39:14.802Z,56.56
2018-09-27T10:40:14.847Z,56.37
2018-09-27T10:41:14.774Z,56.85
2018-09-27T10:42:14.777Z,57.33
2018-09-27T10:43:14.756Z,56.85
2018-09-27T10:44:14.750Z,56.88
2018-09-27T10:45:14.743Z,57.26
2018-09-27T10:46:14.760Z,57.26
2018-09-27T10:47:14.723Z,56.88
2018-09-27T10:48:14.713Z,56.88
2018-09-27T10:49:14.704Z,57.17
2018-09-27T10:50:14.694Z,57.17
2018-09-27T10:51:14.806Z,55.73
2018-09-27T10:52:14.677Z,56.59
2018-09-27T10:53:14.676Z,57.36
2018-09-27T10:54:14.652Z,57.36
2018-09-27T10:55:14.639Z,57.58
2018-09-27T10:56:14.633Z,57.39
2018-09-27T10:57:14.698Z,58.06
2018-09-27T10:58:14.622Z,56.91
2018-09-27T10:59:14.614Z,56.04
2018-09-27T11:00:14.596Z,54.99
2018-09-27T11:01:14.600Z,54.50
2018-09-27T11:02:14.611Z,54.69
2018-09-27T11:03:14.600Z,54.50
2018-09-27T11:04:14.615Z,54.69
2018-09-27T11:05:14.556Z,54.41
2018-09-27T11:06:14.549Z,54.41
2018-09-27T11:07:14.526Z,54.31
2018-09-27T11:08:14.551Z,53.64
2018-09-27T11:09:14.512Z,53.35
2018-09-27T11:10:14.503Z,52.03
2018-09-27T11:11:14.543Z,51.91
2018-09-27T11:12:14.493Z,51.84
2018-09-27T11:13:14.519Z,51.84
2018-09-27T11:14:14.470Z,50.49
2018-09-27T11:15:14.460Z,50.10
2018-09-27T11:16:14.456Z,50.10
2018-09-27T11:17:14.436Z,48.95
2018-09-27T11:18:14.433Z,49.33
2018-09-27T11:19:14.432Z,49.05
2018-09-27T11:20:14.410Z,47.80
2018-09-27T11:21:14.411Z,47.70
2018-09-27T11:22:14.408Z,48.08
2018-09-27T11:23:14.395Z,45.29
2018-09-27T11:24:14.401Z,44.53
2018-09-27T11:25:14.375Z,45.01
2018-09-27T11:26:14.367Z,43.95
2018-09-27T11:27:14.353Z,42.60
2018-09-27T11:28:14.386Z,43.85
2018-09-27T11:29:14.343Z,44.43
2018-09-27T11:30:14.361Z,43.08
2018-09-27T11:31:14.324Z,42.12
2018-09-27T11:32:14.313Z,40.58
2018-09-27T11:33:14.312Z,40.30
2018-09-27T11:34:14.298Z,41.45
2018-09-27T11:35:14.314Z,42.70
2018-09-27T11:36:14.279Z,41.74
2018-09-27T11:37:14.274Z,41.74
2018-09-27T11:38:14.256Z,39.81
2018-09-27T11:39:14.247Z,40.61
2018-09-27T11:40:14.280Z,38.68
2018-09-27T11:41:14.293Z,38.49
2018-09-27T11:42:14.282Z,39.06
2018-09-27T11:43:14.227Z,38.37
2018-09-27T11:44:14.371Z,37.14
2018-09-27T11:45:14.197Z,36.54
2018-09-27T11:46:14.197Z,36.37
2018-09-27T11:47:14.189Z,38.10
2018-09-27T11:48:14.166Z,36.66
2018-09-27T11:49:14.300Z,36.56
2018-09-27T11:50:14.176Z,37.04
2018-09-27T11:51:14.137Z,37.24
2018-09-27T11:52:14.170Z,35.12
2018-09-27T11:53:14.129Z,36.08
2018-09-27T11:54:14.115Z,35.22
2018-09-27T11:55:14.117Z,36.08
2018-09-27T11:56:14.147Z,33.48
2018-09-27T11:57:14.161Z,33.67
2018-09-27T11:58:14.093Z,32.90
2018-09-27T11:59:14.125Z,31.75
2018-09-27T12:00:14.075Z,31.18
2018-09-27T12:01:14.060Z,32.81
2018-09-27T12:02:14.121Z,33.29
2018-09-27T12:03:14.036Z,33.48
2018-09-27T12:04:14.036Z,32.81
2018-09-27T12:05:14.060Z,33.31
2018-09-27T12:06:14.019Z,34.35
2018-09-27T12:07:14.072Z,34.54
2018-09-27T12:08:14.012Z,33.48
2018-09-27T12:09:13.995Z,34.25
2018-09-27T12:10:13.978Z,33.20
2018-09-27T12:11:13.972Z,31.67
2018-09-27T12:12:14.090Z,31.08
2018-09-27T12:13:14.163Z,31.48
2018-09-27T12:14:13.952Z,33.02
2018-09-27T12:15:13.938Z,34.56
2018-09-27T12:16:13.925Z,35.24
2018-09-27T12:17:13.948Z,34.66
2018-09-27T12:18:13.959Z,33.79
2018-09-27T12:19:13.903Z,31.48
2018-09-27T12:20:14.044Z,32.36
2018-09-27T12:21:13.940Z,32.34
2018-09-27T12:22:13.891Z,32.34
2018-09-27T12:23:13.885Z,32.34
2018-09-27T12:24:13.945Z,32.75
2018-09-27T12:25:13.963Z,32.17
2018-09-27T12:26:13.854Z,31.21
2018-09-27T12:27:13.842Z,29.08
2018-09-27T12:28:13.840Z,28.22
2018-09-27T12:29:13.827Z,27.26
2018-09-27T12:30:13.819Z,26.48
2018-09-27T12:31:13.823Z,26.68
2018-09-27T12:32:13.799Z,26.68
2018-09-27T12:33:13.797Z,27.35
2018-09-27T12:34:13.797Z,27.56
2018-09-27T12:35:13.808Z,28.23
2018-09-27T12:36:13.777Z,28.42
2018-09-27T12:37:13.768Z,28.62
2018-09-27T12:38:13.784Z,28.14
2018-09-27T12:39:13.755Z,27.85
2018-09-27T12:40:13.768Z,26.59
2018-09-27T12:41:13.800Z,27.17
2018-09-27T12:42:13.882Z,28.14
2018-09-27T12:43:13.727Z,27.66
2018-09-27T12:44:13.718Z,28.23
2018-09-27T12:45:13.796Z,27.19
2018-09-27T12:46:13.720Z,26.69
2018-09-27T12:47:13.729Z,26.90
2018-09-27T12:48:13.731Z,27.86
2018-09-27T12:49:13.677Z,27.00
2018-09-27T12:50:13.673Z,27.86
2018-09-27T12:51:13.823Z,29.52
2018-09-27T12:52:14.065Z,29.13